createdAt,value
2023-04-27T00:01:20.615Z,29.17
2023-04-27T00:03:54.948Z,29.83
2023-04-27T00:06:28.932Z,26.73
2023-04-27T00:09:02.492Z,27.45
2023-04-27T00:11:37.272Z,26.33
2023-04-27T00:14:10.614Z,28.27
2023-04-27T00:16:44.431Z,28.15
2023-04-27T00:19:18.201Z,29.95
2023-04-27T00:21:51.821Z,29.20
2023-04-27T00:24:25.421Z,28.70
2023-04-27T00:27:00.356Z,28.50
2023-04-27T00:29:33.524Z,28.95
2023-04-27T00:32:06.464Z,27.30
2023-04-27T00:34:39.513Z,27.77
2023-04-27T00:37:12.418Z,28.33
2023-04-27T00:39:45.329Z,27.55
2023-04-27T00:42:21.252Z,26.63
2023-04-27T00:44:56.876Z,26.73
2023-04-27T00:47:30.078Z,25.55
2023-04-27T00:50:03.384Z,27.25
2023-04-27T00:52:36.561Z,26.63
2023-04-27T00:55:10.682Z,25.02
2023-04-27T00:57:48.487Z,20.35
2023-04-27T01:00:22.653Z,21.67
2023-04-27T01:02:58.576Z,22.00
2023-04-27T01:05:32.786Z,20.35
2023-04-27T01:08:07.250Z,20.50
2023-04-27T01:10:40.620Z,20.58
2023-04-27T01:13:17.659Z,20.98
2023-04-27T01:15:50.723Z,23.35
2023-04-27T01:21:19.055Z,24.33
2023-04-27T01:23:54.407Z,21.63
2023-04-27T01:26:28.359Z,22.27
2023-04-27T01:29:02.027Z,22.30
2023-04-27T01:31:35.327Z,20.08
2023-04-27T01:34:08.472Z,21.00
2023-04-27T01:36:41.675Z,21.13
2023-04-27T01:39:16.532Z,20.33
2023-04-27T01:41:49.642Z,21.77
2023-04-27T01:44:24.439Z,22.58
2023-04-27T01:46:57.645Z,21.20
2023-04-27T01:49:30.760Z,21.67
2023-04-27T01:52:03.916Z,21.63
2023-04-27T01:54:41.080Z,23.15
2023-04-27T01:57:15.718Z,20.50
2023-04-27T01:59:49.019Z,19.77
2023-04-27T02:02:22.347Z,21.52
2023-04-27T02:04:55.660Z,20.25
2023-04-27T02:07:29.023Z,18.50
2023-04-27T02:10:03.706Z,19.02
2023-04-27T02:12:37.114Z,18.73
2023-04-27T02:15:11.404Z,18.08
2023-04-27T02:17:45.587Z,17.65
2023-04-27T02:20:19.475Z,15.68
2023-04-27T02:22:52.980Z,17.73
2023-04-27T02:25:28.613Z,15.93
2023-04-27T02:28:02.147Z,15.48
2023-04-27T02:30:35.921Z,15.15
2023-04-27T02:33:09.106Z,16.98
2023-04-27T02:35:42.288Z,15.82
2023-04-27T02:38:15.596Z,14.60
2023-04-27T02:40:50.979Z,14.27
2023-04-27T02:43:24.514Z,15.10
2023-04-27T02:45:57.344Z,15.77
2023-04-27T02:48:30.469Z,14.73
2023-04-27T02:51:03.725Z,16.38
2023-04-27T02:53:36.613Z,16.33
2023-04-27T02:56:11.469Z,12.82
2023-04-27T02:58:44.804Z,12.20
2023-04-27T03:01:20.150Z,13.10
2023-04-27T03:03:54.022Z,13.02
2023-04-27T03:06:27.436Z,13.60
2023-04-27T03:09:00.609Z,13.25
2023-04-27T03:11:37.265Z,13.10
2023-04-27T03:14:10.985Z,14.13
2023-04-27T03:16:44.220Z,14.30
2023-04-27T03:19:19.389Z,13.80
2023-04-27T03:21:52.594Z,17.25
2023-04-27T03:24:27.001Z,15.13
2023-04-27T03:27:04.010Z,17.50
2023-04-27T03:29:36.914Z,17.15
2023-04-27T03:32:11.107Z,18.95
2023-04-27T03:34:44.084Z,18.50
2023-04-27T03:37:17.217Z,16.33
2023-04-27T03:39:50.610Z,17.15
2023-04-27T03:42:25.843Z,18.00
2023-04-27T03:44:59.127Z,17.13
2023-04-27T03:47:32.769Z,21.10
2023-04-27T03:50:06.545Z,23.10
2023-04-27T03:52:39.392Z,21.08
2023-04-27T03:55:12.700Z,21.58
2023-04-27T03:57:49.279Z,20.83
2023-04-27T04:00:23.176Z,22.20
2023-04-27T04:02:57.043Z,21.02
2023-04-27T04:05:31.716Z,21.30
2023-04-27T04:08:05.410Z,24.27
2023-04-27T04:10:39.677Z,23.08
2023-04-27T04:13:14.678Z,24.20
2023-04-27T04:15:47.607Z,24.90
2023-04-27T04:18:20.812Z,26.20
2023-04-27T04:20:54.379Z,24.53
2023-04-27T04:23:28.735Z,25.23
2023-04-27T04:26:03.271Z,23.10
2023-04-27T04:28:42.408Z,24.50
2023-04-27T04:31:18.348Z,23.23
2023-04-27T04:33:51.508Z,22.53
2023-04-27T04:36:25.354Z,24.93
2023-04-27T04:39:00.501Z,23.30
2023-04-27T04:41:34.038Z,23.47
2023-04-27T04:44:09.552Z,22.30
2023-04-27T04:46:42.872Z,22.97
2023-04-27T04:49:16.164Z,22.03
2023-04-27T04:51:49.642Z,21.50
2023-04-27T04:54:22.950Z,20.87
2023-04-27T04:56:56.555Z,19.77
2023-04-27T04:59:36.799Z,18.13
2023-04-27T05:02:10.405Z,19.57
2023-04-27T05:04:44.065Z,20.40
2023-04-27T05:07:20.889Z,19.67
2023-04-27T05:09:57.190Z,21.33
2023-04-27T05:12:30.606Z,18.83
2023-04-27T05:15:06.275Z,20.00
2023-04-27T05:17:39.672Z,22.00
2023-04-27T05:20:14.209Z,21.83
2023-04-27T05:22:47.712Z,19.10
2023-04-27T05:25:21.278Z,20.00
2023-04-27T05:27:54.097Z,20.23
2023-04-27T05:30:29.008Z,18.50
2023-04-27T05:33:03.360Z,18.47
2023-04-27T05:35:37.139Z,17.60
2023-04-27T05:38:10.445Z,18.60
2023-04-27T05:40:43.964Z,17.97
2023-04-27T05:43:17.076Z,17.43
2023-04-27T05:45:53.043Z,19.13
2023-04-27T05:48:25.931Z,16.70
2023-04-27T05:51:05.035Z,18.90
2023-04-27T05:53:38.131Z,18.53
2023-04-27T05:56:14.243Z,17.93
2023-04-27T05:58:47.830Z,18.97
2023-04-27T06:01:23.272Z,16.70
2023-04-27T06:03:56.645Z,16.17
2023-04-27T06:06:30.270Z,17.83
2023-04-27T06:09:03.898Z,17.47
2023-04-27T06:11:37.476Z,17.03
2023-04-27T06:14:11.132Z,16.70
2023-04-27T06:16:45.813Z,16.00
2023-04-27T06:19:18.931Z,16.63
2023-04-27T06:21:52.095Z,15.80
2023-04-27T06:24:26.128Z,16.33
2023-04-27T06:26:59.767Z,14.87
2023-04-27T06:29:33.401Z,15.37
2023-04-27T06:32:09.222Z,15.53
2023-04-27T06:34:42.757Z,14.00
2023-04-27T06:37:16.297Z,14.07
2023-04-27T06:39:50.033Z,12.97
2023-04-27T06:42:23.199Z,13.67
2023-04-27T06:45:00.362Z,13.77
2023-04-27T06:47:36.489Z,13.70
2023-04-27T06:50:10.110Z,13.47
2023-04-27T06:52:42.942Z,14.73
2023-04-27T06:55:16.458Z,14.93
2023-04-27T06:57:49.525Z,15.00
2023-04-27T07:00:23.180Z,15.20
2023-04-27T07:02:58.161Z,14.90
2023-04-27T07:05:31.491Z,14.60
2023-04-27T07:08:07.937Z,13.83
2023-04-27T07:10:42.411Z,13.50
2023-04-27T07:13:15.929Z,13.23
2023-04-27T07:15:49.657Z,12.73
2023-04-27T07:18:25.199Z,14.23
2023-04-27T07:20:59.483Z,13.47
2023-04-27T07:23:32.913Z,11.43
2023-04-27T07:26:07.941Z,11.57
2023-04-27T07:28:41.344Z,12.23
2023-04-27T07:31:15.592Z,11.00
2023-04-27T07:33:54.595Z,12.30
2023-04-27T07:36:28.703Z,11.50
2023-04-27T07:39:02.140Z,10.50
2023-04-27T07:41:37.267Z,10.97
2023-04-27T07:44:10.913Z,10.70
2023-04-27T07:46:44.752Z,11.67
2023-04-27T07:49:22.232Z,10.90
2023-04-27T07:51:55.866Z,11.87
2023-04-27T07:54:29.483Z,11.40
2023-04-27T07:57:03.666Z,11.13
2023-04-27T07:59:36.946Z,11.00
2023-04-27T08:02:18.334Z,11.03
2023-04-27T08:05:02.895Z,11.33
2023-04-27T08:07:41.207Z,11.27
2023-04-27T08:10:20.253Z,10.83
2023-04-27T08:12:53.501Z,9.77
2023-04-27T08:15:27.072Z,10.10
2023-04-27T08:18:00.642Z,10.17
2023-04-27T08:20:36.182Z,10.60
2023-04-27T08:23:09.708Z,9.83
2023-04-27T08:25:42.588Z,10.87
2023-04-27T08:28:15.387Z,10.60
2023-04-27T08:30:48.561Z,11.03
2023-04-27T08:33:22.418Z,10.47
2023-04-27T08:36:07.268Z,10.73
2023-04-27T08:38:41.025Z,10.90
2023-04-27T08:41:21.218Z,11.27
2023-04-27T08:43:57.347Z,10.23
2023-04-27T08:46:32.984Z,11.20
2023-04-27T08:49:06.359Z,10.33
2023-04-27T08:51:43.140Z,10.70
2023-04-27T08:54:16.438Z,10.73
2023-04-27T08:56:50.251Z,10.53
2023-04-27T08:59:23.653Z,11.90
2023-04-27T09:01:57.510Z,11.73
2023-04-27T09:04:42.208Z,11.13
2023-04-27T09:07:21.818Z,12.33
2023-04-27T09:09:54.745Z,11.33
2023-04-27T09:12:27.880Z,11.77
2023-04-27T09:15:06.758Z,11.67
2023-04-27T09:17:40.028Z,11.80
2023-04-27T09:20:14.551Z,11.43
2023-04-27T09:22:56.619Z,11.67
2023-04-27T09:25:30.804Z,11.87
2023-04-27T09:28:05.115Z,11.17
2023-04-27T09:30:38.186Z,11.97
2023-04-27T09:33:10.999Z,11.73
2023-04-27T09:35:49.422Z,11.83
2023-04-27T09:38:25.999Z,12.30
2023-04-27T09:40:59.960Z,12.13
2023-04-27T09:43:34.507Z,12.23
2023-04-27T09:46:09.268Z,11.97
2023-04-27T09:48:44.233Z,13.43
2023-04-27T09:51:19.882Z,25.47
2023-04-27T09:53:59.724Z,33.17
2023-04-27T09:56:43.972Z,33.23
2023-04-27T09:59:53.696Z,34.67
2023-04-27T10:02:33.131Z,38.37
2023-04-27T10:05:28.419Z,39.10
2023-04-27T10:08:02.024Z,39.10
2023-04-27T10:10:50.777Z,39.03
2023-04-27T10:13:28.177Z,37.93
2023-04-27T10:16:01.968Z,39.27
2023-04-27T10:18:35.444Z,37.50
2023-04-27T10:21:15.204Z,40.40
2023-04-27T10:23:52.682Z,37.47
2023-04-27T10:26:32.997Z,38.73
2023-04-27T10:29:12.127Z,37.20
2023-04-27T10:31:51.405Z,37.40
2023-04-27T10:34:25.102Z,39.13
2023-04-27T10:37:10.442Z,39.07
2023-04-27T10:39:49.152Z,37.90
2023-04-27T10:42:34.234Z,38.57
2023-04-27T10:45:07.804Z,38.03
2023-04-27T10:47:44.927Z,36.37
2023-04-27T10:50:20.080Z,35.73
2023-04-27T10:52:53.407Z,36.50
2023-04-27T10:55:30.013Z,36.00
2023-04-27T10:58:05.517Z,37.83
2023-04-27T11:00:39.762Z,35.57
2023-04-27T11:03:18.537Z,37.30
2023-04-27T11:05:53.985Z,37.67
2023-04-27T11:08:27.767Z,37.13
2023-04-27T11:11:01.798Z,38.53
2023-04-27T11:13:37.174Z,38.40
2023-04-27T11:16:10.333Z,37.70
2023-04-27T11:18:43.725Z,38.03
2023-04-27T11:21:18.871Z,38.57
2023-04-27T11:23:51.721Z,38.07
2023-04-27T11:26:27.665Z,39.57
2023-04-27T11:29:07.471Z,38.13
2023-04-27T11:31:53.227Z,39.50
2023-04-27T11:34:27.927Z,39.10
2023-04-27T11:39:43.106Z,39.90
2023-04-27T11:42:26.231Z,39.23
2023-04-27T11:45:03.033Z,38.73
2023-04-27T11:47:37.449Z,40.77
2023-04-27T11:50:11.976Z,40.67
2023-04-27T11:52:46.611Z,39.23
2023-04-27T11:55:20.142Z,39.03
2023-04-27T11:57:56.869Z,38.63
2023-04-27T12:00:32.681Z,40.70
2023-04-27T12:03:07.252Z,40.67
2023-04-27T12:05:51.119Z,41.53
2023-04-27T12:08:24.516Z,41.27
2023-04-27T12:10:59.371Z,42.20
2023-04-27T12:13:32.800Z,40.63
2023-04-27T12:16:09.151Z,42.57
2023-04-27T12:18:42.084Z,39.67
2023-04-27T12:21:15.776Z,39.90
2023-04-27T12:23:49.266Z,39.80
2023-04-27T12:26:22.536Z,40.27
2023-04-27T12:28:56.118Z,40.43
2023-04-27T12:31:32.543Z,39.00
2023-04-27T12:34:06.250Z,39.80
2023-04-27T12:36:39.626Z,38.80
2023-04-27T12:39:21.356Z,38.37
2023-04-27T12:41:54.704Z,39.30
2023-04-27T12:44:28.160Z,39.43
2023-04-27T12:47:02.815Z,40.40
2023-04-27T12:49:37.665Z,40.50
2023-04-27T12:52:11.462Z,39.80
2023-04-27T12:54:45.200Z,40.57
2023-04-27T12:57:18.914Z,38.47
2023-04-27T12:59:53.523Z,38.33
2023-04-27T13:02:30.587Z,37.33
2023-04-27T13:05:05.364Z,36.70
2023-04-27T13:07:42.587Z,37.67
2023-04-27T13:10:16.718Z,38.33
2023-04-27T13:12:50.543Z,38.93
2023-04-27T13:15:24.761Z,37.83
2023-04-27T13:18:03.143Z,39.30
2023-04-27T13:20:38.164Z,38.40
2023-04-27T13:23:16.138Z,37.63
2023-04-27T13:25:49.448Z,39.63
2023-04-27T13:28:29.799Z,38.27
2023-04-27T13:31:02.654Z,40.50
2023-04-27T13:33:43.970Z,37.93
2023-04-27T13:36:17.466Z,40.50
2023-04-27T13:38:51.695Z,42.93
2023-04-27T13:41:25.843Z,42.47
2023-04-27T13:44:00.173Z,43.07
2023-04-27T13:46:34.346Z,44.00
2023-04-27T13:49:10.063Z,44.50
2023-04-27T13:51:46.919Z,43.43
2023-04-27T13:54:19.875Z,45.47
2023-04-27T13:56:53.615Z,45.63
2023-04-27T13:59:27.199Z,45.90
2023-04-27T14:02:04.306Z,43.10
2023-04-27T14:04:39.573Z,40.77
2023-04-27T14:07:16.830Z,39.33
2023-04-27T14:09:50.068Z,39.60
2023-04-27T14:12:23.281Z,38.60
2023-04-27T14:14:57.908Z,37.13
2023-04-27T14:17:31.810Z,37.73
2023-04-27T14:20:10.263Z,37.27
2023-04-27T14:22:44.418Z,36.57
2023-04-27T14:25:17.682Z,35.90
2023-04-27T14:27:57.028Z,35.30
2023-04-27T14:30:31.871Z,34.00
2023-04-27T14:33:05.272Z,34.40
2023-04-27T14:35:41.057Z,34.70
2023-04-27T14:38:13.908Z,34.17
2023-04-27T14:40:47.302Z,32.23
2023-04-27T14:43:25.204Z,31.00
2023-04-27T14:46:19.144Z,31.20
2023-04-27T14:48:54.842Z,29.47
2023-04-27T14:51:32.523Z,29.73
2023-04-27T14:54:05.564Z,30.53
2023-04-27T14:56:38.616Z,28.77
2023-04-27T14:59:12.817Z,28.17
2023-04-27T15:01:46.187Z,28.33
2023-04-27T15:04:19.743Z,28.40
2023-04-27T15:06:57.048Z,28.37
2023-04-27T15:09:31.464Z,28.20
2023-04-27T15:12:05.128Z,26.97
2023-04-27T15:14:38.535Z,28.07
2023-04-27T15:17:12.389Z,27.73
2023-04-27T15:19:47.033Z,28.20
2023-04-27T15:22:24.635Z,27.47
2023-04-27T15:24:57.792Z,27.00
2023-04-27T15:27:30.964Z,26.27
2023-04-27T15:30:05.593Z,27.00
2023-04-27T15:32:38.433Z,27.13
2023-04-27T15:35:12.343Z,26.90
2023-04-27T15:37:47.798Z,26.93
2023-04-27T15:40:21.712Z,27.03
2023-04-27T15:42:55.443Z,27.17
2023-04-27T15:45:28.569Z,25.07
2023-04-27T15:48:01.857Z,24.63
2023-04-27T15:50:37.150Z,25.27
2023-04-27T15:53:12.455Z,25.40
2023-04-27T15:55:47.029Z,26.10
2023-04-27T15:58:20.935Z,26.90
2023-04-27T16:00:55.429Z,25.87
2023-04-27T16:03:28.973Z,25.57
2023-04-27T16:06:01.823Z,24.93
2023-04-27T16:08:37.763Z,26.40
2023-04-27T16:11:11.493Z,26.13
2023-04-27T16:13:45.072Z,26.60
2023-04-27T16:16:23.257Z,25.77
2023-04-27T16:18:56.936Z,25.80
2023-04-27T16:21:31.395Z,24.80
2023-04-27T16:24:06.862Z,21.37
2023-04-27T16:26:40.293Z,19.70
2023-04-27T16:29:14.844Z,19.97
2023-04-27T16:31:47.978Z,18.53
2023-04-27T16:34:21.086Z,18.10
2023-04-27T16:36:54.340Z,19.70
2023-04-27T16:39:29.782Z,18.57
2023-04-27T16:42:03.491Z,19.47
2023-04-27T16:44:36.757Z,19.20
2023-04-27T16:47:09.622Z,17.10
2023-04-27T16:49:42.436Z,17.50
2023-04-27T16:52:15.843Z,16.50
2023-04-27T16:54:50.916Z,17.77
2023-04-27T16:57:24.286Z,17.23
2023-04-27T16:59:58.160Z,16.17
2023-04-27T17:02:31.587Z,16.20
2023-04-27T17:05:05.405Z,16.83
2023-04-27T17:07:39.024Z,16.43
2023-04-27T17:10:14.625Z,15.77
2023-04-27T17:12:48.134Z,16.20
2023-04-27T17:15:22.151Z,16.73
2023-04-27T17:17:55.791Z,15.63
2023-04-27T17:20:29.391Z,15.77
2023-04-27T17:23:02.815Z,16.43
2023-04-27T17:25:38.279Z,16.23
2023-04-27T17:28:11.510Z,16.37
2023-04-27T17:30:44.864Z,17.33
2023-04-27T17:33:18.524Z,17.03
2023-04-27T17:35:51.399Z,17.93
2023-04-27T17:38:24.869Z,17.20
2023-04-27T17:41:00.342Z,17.33
2023-04-27T17:43:33.948Z,17.07
2023-04-27T17:46:12.179Z,16.93
2023-04-27T17:48:45.336Z,16.90
2023-04-27T17:51:18.916Z,17.67
2023-04-27T17:53:52.373Z,17.40
2023-04-27T17:56:27.017Z,17.60
2023-04-27T17:59:00.887Z,18.73
2023-04-27T18:01:34.931Z,17.77
2023-04-27T18:04:09.042Z,18.90
2023-04-27T18:06:42.562Z,18.53
2023-04-27T18:09:16.295Z,18.50
2023-04-27T18:11:51.238Z,18.40
2023-04-27T18:14:24.617Z,18.80
2023-04-27T18:16:57.846Z,19.53
2023-04-27T18:19:30.951Z,20.37
2023-04-27T18:22:04.114Z,20.33
2023-04-27T18:24:37.327Z,19.27
2023-04-27T18:27:12.639Z,19.40
2023-04-27T18:29:46.236Z,22.00
2023-04-27T18:32:19.549Z,21.77
2023-04-27T18:34:52.875Z,23.23
2023-04-27T18:37:26.688Z,23.97
2023-04-27T18:39:59.528Z,23.83
2023-04-27T18:42:34.127Z,25.13
2023-04-27T18:45:07.619Z,24.30
2023-04-27T18:47:41.197Z,24.77
2023-04-27T18:50:16.470Z,26.13
2023-04-27T18:52:50.168Z,25.90
2023-04-27T18:55:24.259Z,27.57
2023-04-27T18:57:59.760Z,26.90
2023-04-27T19:00:33.296Z,26.80
2023-04-27T19:03:06.659Z,25.43
2023-04-27T19:05:39.761Z,26.10
2023-04-27T19:08:12.728Z,26.70
2023-04-27T19:10:46.313Z,26.37
2023-04-27T19:13:21.468Z,25.47
2023-04-27T19:15:55.297Z,27.60
2023-04-27T19:18:28.858Z,26.90
2023-04-27T19:21:02.375Z,26.77
2023-04-27T19:23:36.047Z,27.60
2023-04-27T19:26:13.204Z,28.37
2023-04-27T19:28:49.705Z,28.67
2023-04-27T19:31:24.603Z,27.33
2023-04-27T19:34:04.063Z,28.30
2023-04-27T19:36:37.359Z,26.87
2023-04-27T19:39:10.437Z,27.37
2023-04-27T19:41:44.228Z,28.47
2023-04-27T19:44:19.854Z,28.20
2023-04-27T19:46:53.088Z,26.50
2023-04-27T19:49:26.331Z,26.40
2023-04-27T19:51:59.147Z,27.07
2023-04-27T19:54:32.656Z,26.80
2023-04-27T19:57:05.894Z,27.17
2023-04-27T19:59:41.329Z,26.33
2023-04-27T20:02:15.447Z,25.67
2023-04-27T20:04:48.990Z,25.23
2023-04-27T20:07:22.735Z,26.13
2023-04-27T20:09:55.982Z,25.07
2023-04-27T20:12:43.626Z,26.00
2023-04-27T20:15:23.129Z,26.23
2023-04-27T20:17:56.559Z,26.17
2023-04-27T20:20:30.309Z,25.67
2023-04-27T20:23:03.729Z,25.60
2023-04-27T20:25:37.775Z,25.57
2023-04-27T20:28:11.037Z,24.00
2023-04-27T20:30:46.155Z,25.43
2023-04-27T20:33:19.508Z,26.37
2023-04-27T20:35:58.666Z,25.33
2023-04-27T20:38:34.163Z,25.70
2023-04-27T20:41:07.277Z,25.63
2023-04-27T20:43:41.449Z,26.13
2023-04-27T20:46:17.961Z,28.50
2023-04-27T20:48:51.595Z,26.07
2023-04-27T20:51:25.559Z,26.67
2023-04-27T20:53:59.482Z,24.93
2023-04-27T20:56:34.800Z,26.67
2023-04-27T20:59:08.291Z,25.47
2023-04-27T21:01:43.195Z,25.40
2023-04-27T21:04:17.228Z,24.50
2023-04-27T21:06:51.272Z,25.77
2023-04-27T21:09:25.311Z,24.57
2023-04-27T21:11:58.648Z,25.87
2023-04-27T21:14:31.437Z,27.10
2023-04-27T21:17:06.340Z,27.07
2023-04-27T21:19:39.960Z,27.23
2023-04-27T21:22:13.789Z,26.63
2023-04-27T21:24:47.405Z,26.67
2023-04-27T21:27:20.936Z,23.70
2023-04-27T21:29:54.780Z,24.93
2023-04-27T21:32:30.392Z,26.27
2023-04-27T21:35:03.829Z,25.23
2023-04-27T21:37:37.160Z,25.43
2023-04-27T21:40:11.371Z,25.77
2023-04-27T21:42:44.206Z,25.17
2023-04-27T21:45:16.933Z,25.50
2023-04-27T21:47:52.132Z,24.13
2023-04-27T21:50:25.840Z,25.03
2023-04-27T21:52:59.426Z,24.03
2023-04-27T21:55:32.978Z,22.93
2023-04-27T21:58:06.112Z,23.60
2023-04-27T22:00:39.423Z,22.40
2023-04-27T22:03:14.590Z,24.43
2023-04-27T22:05:50.356Z,24.13
2023-04-27T22:08:23.652Z,24.07
2023-04-27T22:10:57.010Z,23.00
2023-04-27T22:13:30.832Z,23.40
2023-04-27T22:16:04.223Z,24.60
2023-04-27T22:18:39.732Z,24.83
2023-04-27T22:21:13.826Z,23.07
2023-04-27T22:23:47.319Z,22.67
2023-04-27T22:26:20.923Z,23.27
2023-04-27T22:28:54.475Z,22.60
2023-04-27T22:31:28.559Z,23.00
2023-04-27T22:34:04.109Z,23.87
2023-04-27T22:36:38.147Z,23.40
2023-04-27T22:39:11.583Z,23.67
2023-04-27T22:41:45.047Z,23.80
2023-04-27T22:44:18.581Z,25.20
2023-04-27T22:46:51.532Z,21.80
2023-04-27T22:49:27.124Z,21.10
2023-04-27T22:52:00.894Z,20.27
2023-04-27T22:54:34.636Z,20.47
2023-04-27T22:57:07.943Z,20.97
2023-04-27T22:59:40.817Z,20.23
2023-04-27T23:02:13.634Z,19.63
2023-04-27T23:04:48.828Z,20.63
2023-04-27T23:07:22.291Z,19.67
2023-04-27T23:09:56.577Z,23.30
2023-04-27T23:12:30.193Z,21.90
2023-04-27T23:15:04.152Z,20.73
2023-04-27T23:17:38.133Z,23.50
2023-04-27T23:20:27.454Z,23.83
2023-04-27T23:23:02.046Z,21.47
2023-04-27T23:25:36.798Z,19.80
2023-04-27T23:28:10.260Z,20.70
2023-04-27T23:30:43.455Z,20.50
2023-04-27T23:33:16.924Z,19.80
2023-04-27T23:35:52.193Z,20.70
2023-04-27T23:38:25.345Z,20.03
2023-04-27T23:40:58.076Z,23.67
2023-04-27T23:43:31.559Z,24.20
2023-04-27T23:46:05.540Z,23.73
2023-04-27T23:48:39.317Z,21.60
2023-04-27T23:51:14.599Z,21.13
2023-04-27T23:53:47.909Z,20.03
2023-04-27T23:56:22.216Z,21.13
2023-04-27T23:58:55.463Z,20.43
